sensor_id;sensor_type;location;lat;lon;timestamp;P1;durP1;ratioP1;P2;durP2;ratioP2
79438;SDS011;68889;48.232;10.110;2024-01-30T00:01:58;9.75;;;6.40;;
79438;SDS011;68889;48.232;10.110;2024-01-30T00:04:23;11.98;;;7.40;;
79438;SDS011;68889;48.232;10.110;2024-01-30T00:06:50;14.23;;;7.28;;
79438;SDS011;68889;48.232;10.110;2024-01-30T00:09:16;13.75;;;7.85;;
79438;SDS011;68889;48.232;10.110;2024-01-30T00:11:41;12.80;;;7.78;;
79438;SDS011;68889;48.232;10.110;2024-01-30T00:14:07;11.98;;;7.57;;
79438;SDS011;68889;48.232;10.110;2024-01-30T00:16:34;13.05;;;8.90;;
79438;SDS011;68889;48.232;10.110;2024-01-30T00:19:00;12.77;;;7.70;;
79438;SDS011;68889;48.232;10.110;2024-01-30T00:21:28;11.40;;;7.97;;
79438;SDS011;68889;48.232;10.110;2024-01-30T00:23:54;10.32;;;6.90;;
79438;SDS011;68889;48.232;10.110;2024-01-30T00:26:19;12.18;;;6.75;;
79438;SDS011;68889;48.232;10.110;2024-01-30T00:28:45;8.98;;;5.80;;
79438;SDS011;68889;48.232;10.110;2024-01-30T00:31:11;12.55;;;7.70;;
79438;SDS011;68889;48.232;10.110;2024-01-30T00:33:40;10.25;;;6.63;;
79438;SDS011;68889;48.232;10.110;2024-01-30T00:36:07;9.27;;;6.20;;
79438;SDS011;68889;48.232;10.110;2024-01-30T00:38:34;11.45;;;6.93;;
79438;SDS011;68889;48.232;10.110;2024-01-30T00:41:00;9.20;;;6.82;;
79438;SDS011;68889;48.232;10.110;2024-01-30T00:43:29;10.38;;;5.60;;
79438;SDS011;68889;48.232;10.110;2024-01-30T00:45:57;9.50;;;5.90;;
79438;SDS011;68889;48.232;10.110;2024-01-30T00:48:23;8.60;;;6.30;;
79438;SDS011;68889;48.232;10.110;2024-01-30T00:50:51;10.73;;;6.43;;
79438;SDS011;68889;48.232;10.110;2024-01-30T00:53:17;10.18;;;6.47;;
79438;SDS011;68889;48.232;10.110;2024-01-30T00:55:43;9.65;;;6.43;;
79438;SDS011;68889;48.232;10.110;2024-01-30T00:58:08;8.80;;;6.03;;
79438;SDS011;68889;48.232;10.110;2024-01-30T01:00:34;9.88;;;5.78;;
79438;SDS011;68889;48.232;10.110;2024-01-30T01:02:59;8.13;;;5.63;;
79438;SDS011;68889;48.232;10.110;2024-01-30T01:08:01;7.00;;;4.70;;
79438;SDS011;68889;48.232;10.110;2024-01-30T01:10:27;11.18;;;6.18;;
79438;SDS011;68889;48.232;10.110;2024-01-30T01:12:53;9.88;;;5.88;;
79438;SDS011;68889;48.232;10.110;2024-01-30T01:15:19;8.30;;;5.30;;
79438;SDS011;68889;48.232;10.110;2024-01-30T01:17:45;9.68;;;6.20;;
79438;SDS011;68889;48.232;10.110;2024-01-30T01:20:11;7.32;;;4.85;;
79438;SDS011;68889;48.232;10.110;2024-01-30T01:22:37;8.85;;;5.53;;
79438;SDS011;68889;48.232;10.110;2024-01-30T01:25:06;8.85;;;4.90;;
79438;SDS011;68889;48.232;10.110;2024-01-30T01:27:33;7.78;;;5.18;;
79438;SDS011;68889;48.232;10.110;2024-01-30T01:30:00;7.55;;;5.13;;
79438;SDS011;68889;48.232;10.110;2024-01-30T01:32:26;7.60;;;5.35;;
79438;SDS011;68889;48.232;10.110;2024-01-30T01:34:53;7.13;;;5.38;;
79438;SDS011;68889;48.232;10.110;2024-01-30T01:37:19;8.00;;;4.88;;
79438;SDS011;68889;48.232;10.110;2024-01-30T01:39:47;7.47;;;5.30;;
79438;SDS011;68889;48.232;10.110;2024-01-30T01:42:12;8.23;;;4.97;;
79438;SDS011;68889;48.232;10.110;2024-01-30T01:44:39;6.80;;;4.55;;
79438;SDS011;68889;48.232;10.110;2024-01-30T01:49:31;7.32;;;5.10;;
79438;SDS011;68889;48.232;10.110;2024-01-30T01:51:57;6.72;;;4.63;;
79438;SDS011;68889;48.232;10.110;2024-01-30T01:54:30;8.65;;;4.90;;
79438;SDS011;68889;48.232;10.110;2024-01-30T01:56:57;6.30;;;3.90;;
79438;SDS011;68889;48.232;10.110;2024-01-30T01:59:31;6.60;;;4.78;;
79438;SDS011;68889;48.232;10.110;2024-01-30T02:01:59;8.15;;;4.57;;
79438;SDS011;68889;48.232;10.110;2024-01-30T02:04:29;7.68;;;4.80;;
79438;SDS011;68889;48.232;10.110;2024-01-30T02:06:56;6.35;;;4.30;;
79438;SDS011;68889;48.232;10.110;2024-01-30T02:09:23;8.18;;;4.72;;
79438;SDS011;68889;48.232;10.110;2024-01-30T02:14:23;7.63;;;4.90;;
79438;SDS011;68889;48.232;10.110;2024-01-30T02:16:50;7.45;;;4.65;;
79438;SDS011;68889;48.232;10.110;2024-01-30T02:19:16;7.22;;;4.70;;
79438;SDS011;68889;48.232;10.110;2024-01-30T02:21:42;9.38;;;5.25;;
79438;SDS011;68889;48.232;10.110;2024-01-30T02:24:09;7.57;;;4.78;;
79438;SDS011;68889;48.232;10.110;2024-01-30T02:26:35;8.40;;;5.57;;
79438;SDS011;68889;48.232;10.110;2024-01-30T02:29:01;9.02;;;4.95;;
79438;SDS011;68889;48.232;10.110;2024-01-30T02:31:27;7.30;;;4.22;;
79438;SDS011;68889;48.232;10.110;2024-01-30T02:33:54;7.65;;;4.72;;
79438;SDS011;68889;48.232;10.110;2024-01-30T02:36:21;8.52;;;4.75;;
79438;SDS011;68889;48.232;10.110;2024-01-30T02:38:46;7.13;;;4.60;;
79438;SDS011;68889;48.232;10.110;2024-01-30T02:41:12;8.07;;;5.10;;
79438;SDS011;68889;48.232;10.110;2024-01-30T02:43:38;6.60;;;3.88;;
79438;SDS011;68889;48.232;10.110;2024-01-30T02:46:04;7.10;;;4.60;;
79438;SDS011;68889;48.232;10.110;2024-01-30T02:48:30;6.20;;;4.25;;
79438;SDS011;68889;48.232;10.110;2024-01-30T02:50:57;6.55;;;4.22;;
79438;SDS011;68889;48.232;10.110;2024-01-30T02:58:14;5.95;;;3.95;;
79438;SDS011;68889;48.232;10.110;2024-01-30T03:00:39;7.18;;;3.88;;
79438;SDS011;68889;48.232;10.110;2024-01-30T03:03:05;5.85;;;3.83;;
79438;SDS011;68889;48.232;10.110;2024-01-30T03:05:31;6.97;;;4.38;;
79438;SDS011;68889;48.232;10.110;2024-01-30T03:07:56;5.70;;;4.00;;
79438;SDS011;68889;48.232;10.110;2024-01-30T03:10:22;6.10;;;4.05;;
79438;SDS011;68889;48.232;10.110;2024-01-30T03:12:48;6.28;;;4.07;;
79438;SDS011;68889;48.232;10.110;2024-01-30T03:15:13;5.15;;;4.30;;
79438;SDS011;68889;48.232;10.110;2024-01-30T03:17:39;6.22;;;4.53;;
79438;SDS011;68889;48.232;10.110;2024-01-30T03:20:05;6.75;;;3.72;;
79438;SDS011;68889;48.232;10.110;2024-01-30T03:22:31;7.03;;;3.85;;
79438;SDS011;68889;48.232;10.110;2024-01-30T03:24:57;7.13;;;3.75;;
79438;SDS011;68889;48.232;10.110;2024-01-30T03:27:23;5.97;;;4.05;;
79438;SDS011;68889;48.232;10.110;2024-01-30T03:29:48;5.97;;;3.50;;
79438;SDS011;68889;48.232;10.110;2024-01-30T03:32:14;6.22;;;3.70;;
79438;SDS011;68889;48.232;10.110;2024-01-30T03:34:39;5.75;;;3.72;;
79438;SDS011;68889;48.232;10.110;2024-01-30T03:37:05;6.22;;;3.55;;
79438;SDS011;68889;48.232;10.110;2024-01-30T03:39:30;5.45;;;3.40;;
79438;SDS011;68889;48.232;10.110;2024-01-30T03:41:56;5.22;;;3.70;;
79438;SDS011;68889;48.232;10.110;2024-01-30T03:44:23;6.13;;;3.95;;
79438;SDS011;68889;48.232;10.110;2024-01-30T03:46:49;5.40;;;3.58;;
79438;SDS011;68889;48.232;10.110;2024-01-30T03:49:14;7.13;;;4.53;;
79438;SDS011;68889;48.232;10.110;2024-01-30T03:51:40;5.82;;;3.63;;
79438;SDS011;68889;48.232;10.110;2024-01-30T03:54:06;6.05;;;4.20;;
79438;SDS011;68889;48.232;10.110;2024-01-30T03:56:33;4.35;;;3.33;;
79438;SDS011;68889;48.232;10.110;2024-01-30T03:58:58;5.82;;;3.53;;
79438;SDS011;68889;48.232;10.110;2024-01-30T04:03:51;5.75;;;3.20;;
79438;SDS011;68889;48.232;10.110;2024-01-30T04:06:17;6.22;;;3.40;;
79438;SDS011;68889;48.232;10.110;2024-01-30T04:08:44;7.82;;;4.40;;
79438;SDS011;68889;48.232;10.110;2024-01-30T04:11:11;6.82;;;4.22;;
79438;SDS011;68889;48.232;10.110;2024-01-30T04:13:37;6.07;;;3.88;;
79438;SDS011;68889;48.232;10.110;2024-01-30T04:16:03;6.85;;;3.92;;
79438;SDS011;68889;48.232;10.110;2024-01-30T04:18:29;6.20;;;3.60;;
79438;SDS011;68889;48.232;10.110;2024-01-30T04:20:57;6.05;;;4.28;;
79438;SDS011;68889;48.232;10.110;2024-01-30T04:23:24;6.18;;;3.97;;
79438;SDS011;68889;48.232;10.110;2024-01-30T04:28:15;6.78;;;3.90;;
79438;SDS011;68889;48.232;10.110;2024-01-30T04:30:43;6.43;;;3.80;;
79438;SDS011;68889;48.232;10.110;2024-01-30T04:33:10;7.47;;;4.05;;
79438;SDS011;68889;48.232;10.110;2024-01-30T04:35:36;6.95;;;4.05;;
79438;SDS011;68889;48.232;10.110;2024-01-30T04:38:01;5.70;;;3.50;;
79438;SDS011;68889;48.232;10.110;2024-01-30T04:40:27;6.07;;;4.22;;
79438;SDS011;68889;48.232;10.110;2024-01-30T04:42:52;8.38;;;4.50;;
79438;SDS011;68889;48.232;10.110;2024-01-30T04:45:18;8.40;;;4.28;;
79438;SDS011;68889;48.232;10.110;2024-01-30T04:47:44;6.22;;;3.85;;
79438;SDS011;68889;48.232;10.110;2024-01-30T04:50:10;10.13;;;4.95;;
79438;SDS011;68889;48.232;10.110;2024-01-30T04:52:35;6.57;;;4.07;;
79438;SDS011;68889;48.232;10.110;2024-01-30T04:55:02;5.90;;;3.78;;
79438;SDS011;68889;48.232;10.110;2024-01-30T04:57:28;6.05;;;3.83;;
79438;SDS011;68889;48.232;10.110;2024-01-30T04:59:54;5.13;;;3.53;;
79438;SDS011;68889;48.232;10.110;2024-01-30T05:02:19;7.03;;;4.40;;
79438;SDS011;68889;48.232;10.110;2024-01-30T05:04:45;6.13;;;3.75;;
79438;SDS011;68889;48.232;10.110;2024-01-30T05:07:11;7.57;;;4.07;;
79438;SDS011;68889;48.232;10.110;2024-01-30T05:09:36;6.40;;;3.67;;
79438;SDS011;68889;48.232;10.110;2024-01-30T05:12:03;8.45;;;4.28;;
79438;SDS011;68889;48.232;10.110;2024-01-30T05:14:29;8.93;;;4.47;;
79438;SDS011;68889;48.232;10.110;2024-01-30T05:16:54;8.40;;;4.55;;
79438;SDS011;68889;48.232;10.110;2024-01-30T05:19:20;7.35;;;3.60;;
79438;SDS011;68889;48.232;10.110;2024-01-30T05:21:48;6.90;;;3.67;;
79438;SDS011;68889;48.232;10.110;2024-01-30T05:24:14;6.45;;;4.10;;
79438;SDS011;68889;48.232;10.110;2024-01-30T05:26:39;7.90;;;5.05;;
79438;SDS011;68889;48.232;10.110;2024-01-30T05:29:06;7.72;;;4.15;;
79438;SDS011;68889;48.232;10.110;2024-01-30T05:34:04;7.38;;;4.32;;
79438;SDS011;68889;48.232;10.110;2024-01-30T05:36:31;6.78;;;3.85;;
79438;SDS011;68889;48.232;10.110;2024-01-30T05:38:57;6.68;;;4.15;;
79438;SDS011;68889;48.232;10.110;2024-01-30T05:41:23;6.30;;;3.60;;
79438;SDS011;68889;48.232;10.110;2024-01-30T05:43:48;5.35;;;3.90;;
79438;SDS011;68889;48.232;10.110;2024-01-30T05:46:14;6.38;;;4.25;;
79438;SDS011;68889;48.232;10.110;2024-01-30T05:48:40;7.72;;;4.70;;
79438;SDS011;68889;48.232;10.110;2024-01-30T05:51:07;6.13;;;4.20;;
79438;SDS011;68889;48.232;10.110;2024-01-30T05:53:33;7.70;;;3.80;;
79438;SDS011;68889;48.232;10.110;2024-01-30T05:58:32;8.70;;;4.13;;
79438;SDS011;68889;48.232;10.110;2024-01-30T06:01:07;6.68;;;4.18;;
79438;SDS011;68889;48.232;10.110;2024-01-30T06:03:37;5.85;;;4.05;;
79438;SDS011;68889;48.232;10.110;2024-01-30T06:06:03;7.35;;;3.70;;
79438;SDS011;68889;48.232;10.110;2024-01-30T06:08:29;10.23;;;5.13;;
79438;SDS011;68889;48.232;10.110;2024-01-30T06:10:59;7.35;;;4.25;;
79438;SDS011;68889;48.232;10.110;2024-01-30T06:13:29;6.53;;;4.68;;
79438;SDS011;68889;48.232;10.110;2024-01-30T06:15:57;7.40;;;4.57;;
79438;SDS011;68889;48.232;10.110;2024-01-30T06:18:23;7.70;;;4.45;;
79438;SDS011;68889;48.232;10.110;2024-01-30T06:20:51;6.07;;;3.60;;
79438;SDS011;68889;48.232;10.110;2024-01-30T06:23:17;5.88;;;3.85;;
79438;SDS011;68889;48.232;10.110;2024-01-30T06:25:43;7.05;;;4.22;;
79438;SDS011;68889;48.232;10.110;2024-01-30T06:28:09;5.82;;;3.88;;
79438;SDS011;68889;48.232;10.110;2024-01-30T06:30:35;6.38;;;3.92;;
79438;SDS011;68889;48.232;10.110;2024-01-30T06:33:01;5.57;;;3.50;;
79438;SDS011;68889;48.232;10.110;2024-01-30T06:35:26;6.57;;;3.78;;
79438;SDS011;68889;48.232;10.110;2024-01-30T06:37:53;6.05;;;2.97;;
79438;SDS011;68889;48.232;10.110;2024-01-30T06:40:21;6.72;;;3.67;;
79438;SDS011;68889;48.232;10.110;2024-01-30T06:42:47;5.43;;;3.55;;
79438;SDS011;68889;48.232;10.110;2024-01-30T06:45:14;6.07;;;4.20;;
79438;SDS011;68889;48.232;10.110;2024-01-30T06:47:40;6.43;;;3.53;;
79438;SDS011;68889;48.232;10.110;2024-01-30T06:50:08;6.75;;;4.00;;
79438;SDS011;68889;48.232;10.110;2024-01-30T06:52:34;6.05;;;3.92;;
79438;SDS011;68889;48.232;10.110;2024-01-30T06:55:01;7.10;;;3.90;;
79438;SDS011;68889;48.232;10.110;2024-01-30T06:57:28;6.43;;;4.05;;
79438;SDS011;68889;48.232;10.110;2024-01-30T06:59:59;5.70;;;3.80;;
79438;SDS011;68889;48.232;10.110;2024-01-30T07:02:25;5.72;;;4.15;;
79438;SDS011;68889;48.232;10.110;2024-01-30T07:04:52;6.70;;;3.28;;
79438;SDS011;68889;48.232;10.110;2024-01-30T07:07:17;5.88;;;3.25;;
79438;SDS011;68889;48.232;10.110;2024-01-30T07:09:43;5.78;;;3.30;;
79438;SDS011;68889;48.232;10.110;2024-01-30T07:12:08;6.28;;;4.18;;
79438;SDS011;68889;48.232;10.110;2024-01-30T07:14:35;6.80;;;3.72;;
79438;SDS011;68889;48.232;10.110;2024-01-30T07:17:02;6.22;;;3.70;;
79438;SDS011;68889;48.232;10.110;2024-01-30T07:19:28;8.43;;;4.07;;
79438;SDS011;68889;48.232;10.110;2024-01-30T07:24:23;6.00;;;4.00;;
79438;SDS011;68889;48.232;10.110;2024-01-30T07:26:52;6.97;;;4.15;;
79438;SDS011;68889;48.232;10.110;2024-01-30T07:29:25;6.40;;;3.97;;
79438;SDS011;68889;48.232;10.110;2024-01-30T07:31:51;7.00;;;4.50;;
79438;SDS011;68889;48.232;10.110;2024-01-30T07:34:19;6.90;;;4.53;;
79438;SDS011;68889;48.232;10.110;2024-01-30T07:36:44;7.43;;;4.68;;
79438;SDS011;68889;48.232;10.110;2024-01-30T07:39:14;7.38;;;4.22;;
79438;SDS011;68889;48.232;10.110;2024-01-30T07:41:40;7.82;;;5.88;;
79438;SDS011;68889;48.232;10.110;2024-01-30T07:44:13;7.32;;;5.07;;
79438;SDS011;68889;48.232;10.110;2024-01-30T07:46:40;9.55;;;5.28;;
79438;SDS011;68889;48.232;10.110;2024-01-30T07:49:07;9.20;;;4.85;;
79438;SDS011;68889;48.232;10.110;2024-01-30T07:51:32;7.97;;;4.72;;
79438;SDS011;68889;48.232;10.110;2024-01-30T07:53:58;8.25;;;4.80;;
79438;SDS011;68889;48.232;10.110;2024-01-30T07:56:28;6.78;;;4.43;;
79438;SDS011;68889;48.232;10.110;2024-01-30T07:58:53;7.07;;;4.82;;
79438;SDS011;68889;48.232;10.110;2024-01-30T08:01:20;6.53;;;4.28;;
79438;SDS011;68889;48.232;10.110;2024-01-30T08:03:53;7.70;;;4.70;;
79438;SDS011;68889;48.232;10.110;2024-01-30T08:06:18;7.85;;;4.57;;
79438;SDS011;68889;48.232;10.110;2024-01-30T08:08:45;7.20;;;4.25;;
79438;SDS011;68889;48.232;10.110;2024-01-30T08:13:39;5.88;;;4.15;;
79438;SDS011;68889;48.232;10.110;2024-01-30T08:16:05;6.72;;;4.03;;
79438;SDS011;68889;48.232;10.110;2024-01-30T08:18:34;8.20;;;5.07;;
79438;SDS011;68889;48.232;10.110;2024-01-30T08:21:00;9.15;;;6.05;;
79438;SDS011;68889;48.232;10.110;2024-01-30T08:23:28;9.07;;;5.63;;
79438;SDS011;68889;48.232;10.110;2024-01-30T08:25:57;7.25;;;4.82;;
79438;SDS011;68889;48.232;10.110;2024-01-30T08:28:29;7.10;;;4.85;;
79438;SDS011;68889;48.232;10.110;2024-01-30T08:33:25;6.60;;;4.88;;
79438;SDS011;68889;48.232;10.110;2024-01-30T08:38:28;8.13;;;5.25;;
79438;SDS011;68889;48.232;10.110;2024-01-30T08:41:15;6.70;;;4.57;;
79438;SDS011;68889;48.232;10.110;2024-01-30T08:44:00;7.60;;;4.97;;
79438;SDS011;68889;48.232;10.110;2024-01-30T08:46:39;8.35;;;4.90;;
79438;SDS011;68889;48.232;10.110;2024-01-30T08:49:13;9.75;;;6.75;;
79438;SDS011;68889;48.232;10.110;2024-01-30T08:51:56;6.88;;;4.78;;
79438;SDS011;68889;48.232;10.110;2024-01-30T08:55:18;7.85;;;4.80;;
79438;SDS011;68889;48.232;10.110;2024-01-30T08:58:37;7.57;;;4.72;;
79438;SDS011;68889;48.232;10.110;2024-01-30T09:01:51;7.95;;;4.65;;
79438;SDS011;68889;48.232;10.110;2024-01-30T09:05:01;7.97;;;4.63;;
79438;SDS011;68889;48.232;10.110;2024-01-30T09:07:59;7.15;;;4.40;;
79438;SDS011;68889;48.232;10.110;2024-01-30T09:10:40;6.38;;;4.30;;
79438;SDS011;68889;48.232;10.110;2024-01-30T09:13:41;9.38;;;5.10;;
79438;SDS011;68889;48.232;10.110;2024-01-30T09:16:18;8.50;;;4.70;;
79438;SDS011;68889;48.232;10.110;2024-01-30T09:18:59;7.13;;;4.82;;
79438;SDS011;68889;48.232;10.110;2024-01-30T09:21:27;7.97;;;4.32;;
79438;SDS011;68889;48.232;10.110;2024-01-30T09:24:01;7.55;;;4.95;;
79438;SDS011;68889;48.232;10.110;2024-01-30T09:26:34;7.68;;;4.82;;
79438;SDS011;68889;48.232;10.110;2024-01-30T09:29:02;7.13;;;4.50;;
79438;SDS011;68889;48.232;10.110;2024-01-30T09:31:29;7.43;;;4.15;;
79438;SDS011;68889;48.232;10.110;2024-01-30T09:33:55;7.13;;;4.45;;
79438;SDS011;68889;48.232;10.110;2024-01-30T09:38:49;7.28;;;3.88;;
79438;SDS011;68889;48.232;10.110;2024-01-30T09:41:24;6.85;;;4.20;;
79438;SDS011;68889;48.232;10.110;2024-01-30T09:43:53;6.00;;;3.97;;
79438;SDS011;68889;48.232;10.110;2024-01-30T09:46:33;6.28;;;4.43;;
79438;SDS011;68889;48.232;10.110;2024-01-30T09:49:02;8.30;;;4.60;;
79438;SDS011;68889;48.232;10.110;2024-01-30T09:51:28;5.93;;;3.95;;
79438;SDS011;68889;48.232;10.110;2024-01-30T09:54:03;6.13;;;3.67;;
79438;SDS011;68889;48.232;10.110;2024-01-30T09:56:30;7.03;;;4.30;;
79438;SDS011;68889;48.232;10.110;2024-01-30T09:59:05;6.25;;;4.20;;
79438;SDS011;68889;48.232;10.110;2024-01-30T10:01:34;5.25;;;3.80;;
79438;SDS011;68889;48.232;10.110;2024-01-30T10:06:45;5.60;;;3.67;;
79438;SDS011;68889;48.232;10.110;2024-01-30T10:09:17;6.25;;;3.88;;
79438;SDS011;68889;48.232;10.110;2024-01-30T10:14:20;6.32;;;4.28;;
79438;SDS011;68889;48.232;10.110;2024-01-30T10:16:48;4.75;;;3.22;;
79438;SDS011;68889;48.232;10.110;2024-01-30T10:19:16;6.78;;;3.63;;
79438;SDS011;68889;48.232;10.110;2024-01-30T10:21:46;5.05;;;3.83;;
79438;SDS011;68889;48.232;10.110;2024-01-30T10:24:12;5.45;;;3.67;;
79438;SDS011;68889;48.232;10.110;2024-01-30T10:26:40;6.30;;;3.72;;
79438;SDS011;68889;48.232;10.110;2024-01-30T10:29:12;6.70;;;4.18;;
79438;SDS011;68889;48.232;10.110;2024-01-30T10:31:38;6.93;;;4.55;;
79438;SDS011;68889;48.232;10.110;2024-01-30T10:34:04;6.85;;;4.45;;
79438;SDS011;68889;48.232;10.110;2024-01-30T10:36:33;7.13;;;4.20;;
79438;SDS011;68889;48.232;10.110;2024-01-30T10:39:08;7.50;;;4.13;;
79438;SDS011;68889;48.232;10.110;2024-01-30T10:41:44;5.97;;;4.03;;
79438;SDS011;68889;48.232;10.110;2024-01-30T10:44:18;5.70;;;4.10;;
79438;SDS011;68889;48.232;10.110;2024-01-30T10:46:51;4.90;;;3.53;;
79438;SDS011;68889;48.232;10.110;2024-01-30T10:49:26;6.07;;;4.00;;
79438;SDS011;68889;48.232;10.110;2024-01-30T10:51:54;6.13;;;3.65;;
79438;SDS011;68889;48.232;10.110;2024-01-30T10:54:27;6.72;;;4.35;;
79438;SDS011;68889;48.232;10.110;2024-01-30T10:56:56;5.75;;;4.03;;
79438;SDS011;68889;48.232;10.110;2024-01-30T10:59:28;7.13;;;4.13;;
79438;SDS011;68889;48.232;10.110;2024-01-30T11:02:05;6.75;;;4.05;;
79438;SDS011;68889;48.232;10.110;2024-01-30T11:04:42;6.47;;;4.00;;
79438;SDS011;68889;48.232;10.110;2024-01-30T11:07:18;7.63;;;4.40;;
79438;SDS011;68889;48.232;10.110;2024-01-30T11:09:51;9.10;;;4.88;;
79438;SDS011;68889;48.232;10.110;2024-01-30T11:12:21;9.23;;;4.97;;
79438;SDS011;68889;48.232;10.110;2024-01-30T11:14:49;9.30;;;5.55;;
79438;SDS011;68889;48.232;10.110;2024-01-30T11:17:28;8.18;;;5.35;;
79438;SDS011;68889;48.232;10.110;2024-01-30T11:19:54;7.45;;;4.80;;
79438;SDS011;68889;48.232;10.110;2024-01-30T11:22:22;8.32;;;5.28;;
79438;SDS011;68889;48.232;10.110;2024-01-30T11:24:47;6.13;;;4.53;;
79438;SDS011;68889;48.232;10.110;2024-01-30T11:27:13;8.63;;;5.00;;
79438;SDS011;68889;48.232;10.110;2024-01-30T11:29:40;6.60;;;4.65;;
79438;SDS011;68889;48.232;10.110;2024-01-30T11:32:06;10.38;;;5.53;;
79438;SDS011;68889;48.232;10.110;2024-01-30T11:34:32;7.57;;;5.05;;
79438;SDS011;68889;48.232;10.110;2024-01-30T11:37:02;8.57;;;5.05;;
79438;SDS011;68889;48.232;10.110;2024-01-30T11:39:42;9.38;;;5.20;;
79438;SDS011;68889;48.232;10.110;2024-01-30T11:42:09;6.97;;;4.70;;
79438;SDS011;68889;48.232;10.110;2024-01-30T11:44:35;8.60;;;5.63;;
79438;SDS011;68889;48.232;10.110;2024-01-30T11:47:02;8.05;;;4.85;;
79438;SDS011;68889;48.232;10.110;2024-01-30T11:49:28;8.45;;;5.43;;
79438;SDS011;68889;48.232;10.110;2024-01-30T11:51:54;8.32;;;5.35;;
79438;SDS011;68889;48.232;10.110;2024-01-30T11:54:20;15.15;;;8.02;;
79438;SDS011;68889;48.232;10.110;2024-01-30T11:56:46;16.63;;;8.95;;
79438;SDS011;68889;48.232;10.110;2024-01-30T11:59:13;10.32;;;5.82;;
79438;SDS011;68889;48.232;10.110;2024-01-30T12:01:51;7.68;;;5.22;;
79438;SDS011;68889;48.232;10.110;2024-01-30T12:04:17;21.02;;;10.90;;
79438;SDS011;68889;48.232;10.110;2024-01-30T12:06:43;22.85;;;11.38;;
79438;SDS011;68889;48.232;10.110;2024-01-30T12:09:09;9.65;;;5.90;;
79438;SDS011;68889;48.232;10.110;2024-01-30T12:11:46;8.25;;;5.00;;
79438;SDS011;68889;48.232;10.110;2024-01-30T12:14:15;10.05;;;5.75;;
79438;SDS011;68889;48.232;10.110;2024-01-30T12:16:48;8.45;;;5.47;;
79438;SDS011;68889;48.232;10.110;2024-01-30T12:19:28;8.10;;;5.70;;
79438;SDS011;68889;48.232;10.110;2024-01-30T12:22:07;8.52;;;4.82;;
79438;SDS011;68889;48.232;10.110;2024-01-30T12:24:35;7.65;;;4.90;;
79438;SDS011;68889;48.232;10.110;2024-01-30T12:27:10;7.18;;;4.95;;
79438;SDS011;68889;48.232;10.110;2024-01-30T12:29:36;8.23;;;5.38;;
79438;SDS011;68889;48.232;10.110;2024-01-30T12:32:14;7.13;;;4.80;;
79438;SDS011;68889;48.232;10.110;2024-01-30T12:34:46;7.88;;;5.25;;
79438;SDS011;68889;48.232;10.110;2024-01-30T12:37:12;7.68;;;5.18;;
79438;SDS011;68889;48.232;10.110;2024-01-30T12:39:38;6.75;;;4.78;;
79438;SDS011;68889;48.232;10.110;2024-01-30T12:42:14;7.03;;;5.25;;
79438;SDS011;68889;48.232;10.110;2024-01-30T12:44:43;6.53;;;4.75;;
79438;SDS011;68889;48.232;10.110;2024-01-30T12:47:34;8.02;;;4.60;;
79438;SDS011;68889;48.232;10.110;2024-01-30T12:50:10;6.78;;;5.03;;
79438;SDS011;68889;48.232;10.110;2024-01-30T12:52:43;7.32;;;4.65;;
79438;SDS011;68889;48.232;10.110;2024-01-30T12:55:18;6.53;;;4.88;;
79438;SDS011;68889;48.232;10.110;2024-01-30T12:57:45;5.88;;;4.63;;
79438;SDS011;68889;48.232;10.110;2024-01-30T13:03:03;6.63;;;4.50;;
79438;SDS011;68889;48.232;10.110;2024-01-30T13:05:30;7.90;;;5.35;;
79438;SDS011;68889;48.232;10.110;2024-01-30T13:07:58;6.43;;;4.50;;
79438;SDS011;68889;48.232;10.110;2024-01-30T13:10:25;11.15;;;5.10;;
79438;SDS011;68889;48.232;10.110;2024-01-30T13:12:51;7.38;;;4.85;;
79438;SDS011;68889;48.232;10.110;2024-01-30T13:15:24;8.65;;;5.20;;
79438;SDS011;68889;48.232;10.110;2024-01-30T13:20:44;22.35;;;10.90;;
79438;SDS011;68889;48.232;10.110;2024-01-30T13:23:11;22.45;;;11.75;;
79438;SDS011;68889;48.232;10.110;2024-01-30T13:25:52;13.20;;;8.07;;
79438;SDS011;68889;48.232;10.110;2024-01-30T13:28:26;10.43;;;7.35;;
79438;SDS011;68889;48.232;10.110;2024-01-30T13:30:58;7.28;;;5.85;;
79438;SDS011;68889;48.232;10.110;2024-01-30T13:33:24;9.77;;;5.88;;
79438;SDS011;68889;48.232;10.110;2024-01-30T13:35:51;8.05;;;5.47;;
79438;SDS011;68889;48.232;10.110;2024-01-30T13:38:17;7.60;;;5.45;;
79438;SDS011;68889;48.232;10.110;2024-01-30T13:40:43;6.28;;;5.22;;
79438;SDS011;68889;48.232;10.110;2024-01-30T13:43:09;8.88;;;5.95;;
79438;SDS011;68889;48.232;10.110;2024-01-30T13:45:35;8.02;;;5.82;;
79438;SDS011;68889;48.232;10.110;2024-01-30T13:48:01;10.25;;;6.40;;
79438;SDS011;68889;48.232;10.110;2024-01-30T13:50:35;8.65;;;6.00;;
79438;SDS011;68889;48.232;10.110;2024-01-30T13:53:05;9.75;;;6.65;;
79438;SDS011;68889;48.232;10.110;2024-01-30T13:55:54;7.32;;;5.88;;
79438;SDS011;68889;48.232;10.110;2024-01-30T13:58:32;9.00;;;6.10;;
79438;SDS011;68889;48.232;10.110;2024-01-30T14:01:16;8.65;;;5.32;;
79438;SDS011;68889;48.232;10.110;2024-01-30T14:04:06;8.98;;;6.13;;
79438;SDS011;68889;48.232;10.110;2024-01-30T14:06:39;9.70;;;6.32;;
79438;SDS011;68889;48.232;10.110;2024-01-30T14:09:09;12.65;;;7.22;;
79438;SDS011;68889;48.232;10.110;2024-01-30T14:11:36;11.50;;;6.05;;
79438;SDS011;68889;48.232;10.110;2024-01-30T14:14:02;9.00;;;5.45;;
79438;SDS011;68889;48.232;10.110;2024-01-30T14:16:28;7.38;;;5.30;;
79438;SDS011;68889;48.232;10.110;2024-01-30T14:18:57;7.20;;;5.28;;
79438;SDS011;68889;48.232;10.110;2024-01-30T14:21:22;7.50;;;5.07;;
79438;SDS011;68889;48.232;10.110;2024-01-30T14:23:49;9.52;;;5.82;;
79438;SDS011;68889;48.232;10.110;2024-01-30T14:26:20;9.52;;;6.07;;
79438;SDS011;68889;48.232;10.110;2024-01-30T14:28:46;7.70;;;5.93;;
79438;SDS011;68889;48.232;10.110;2024-01-30T14:31:12;8.85;;;5.95;;
79438;SDS011;68889;48.232;10.110;2024-01-30T14:33:38;8.95;;;6.00;;
79438;SDS011;68889;48.232;10.110;2024-01-30T14:36:04;7.90;;;5.70;;
79438;SDS011;68889;48.232;10.110;2024-01-30T14:38:31;8.07;;;5.82;;
79438;SDS011;68889;48.232;10.110;2024-01-30T14:40:56;8.32;;;6.22;;
79438;SDS011;68889;48.232;10.110;2024-01-30T14:43:23;9.32;;;6.70;;
79438;SDS011;68889;48.232;10.110;2024-01-30T14:45:49;8.10;;;6.32;;
79438;SDS011;68889;48.232;10.110;2024-01-30T14:48:17;10.27;;;6.45;;
79438;SDS011;68889;48.232;10.110;2024-01-30T14:50:46;9.05;;;5.95;;
79438;SDS011;68889;48.232;10.110;2024-01-30T14:53:11;7.57;;;5.63;;
79438;SDS011;68889;48.232;10.110;2024-01-30T14:55:39;8.27;;;6.00;;
79438;SDS011;68889;48.232;10.110;2024-01-30T14:58:05;8.88;;;6.05;;
79438;SDS011;68889;48.232;10.110;2024-01-30T15:00:33;8.32;;;6.13;;
79438;SDS011;68889;48.232;10.110;2024-01-30T15:02:58;8.40;;;5.65;;
79438;SDS011;68889;48.232;10.110;2024-01-30T15:05:27;8.50;;;5.75;;
79438;SDS011;68889;48.232;10.110;2024-01-30T15:07:53;9.77;;;6.20;;
79438;SDS011;68889;48.232;10.110;2024-01-30T15:13:12;10.18;;;6.80;;
79438;SDS011;68889;48.232;10.110;2024-01-30T15:18:23;7.70;;;5.95;;
79438;SDS011;68889;48.232;10.110;2024-01-30T15:20:49;8.73;;;6.13;;
79438;SDS011;68889;48.232;10.110;2024-01-30T15:23:14;11.48;;;6.38;;
79438;SDS011;68889;48.232;10.110;2024-01-30T15:25:44;8.15;;;6.07;;
79438;SDS011;68889;48.232;10.110;2024-01-30T15:28:09;10.75;;;7.25;;
79438;SDS011;68889;48.232;10.110;2024-01-30T15:35:34;7.35;;;5.82;;
79438;SDS011;68889;48.232;10.110;2024-01-30T15:37:59;9.43;;;7.15;;
79438;SDS011;68889;48.232;10.110;2024-01-30T15:40:27;9.75;;;7.47;;